Main page
METAR-TAF:

METAR-TAF

Airports :

Cranfield Airport

Cranfield, England

latitude: 52-04N, longitude: 000-37W, elevation: 111 m

Current weather observation

The report was made 8 hours and 37 minutes ago, at 18:20 UTC
Wind 20 kt from the West/Southwest with gusts up to 30 kt
Temperature 11°C
Humidity 71%
Pressure 1022 hPa
Visibility 10 km or more
Few clouds at a height of 2800 ft

METAR: EGTC 201820Z 25020G30KT 9999 FEW028 11/06 Q1022

Time: 02:57 (02:57 UTC)

Forecast

The report was made 8 hours and 23 minutes ago, at 18:34 UTC
Forecast valid from 20 at 18 UTC to 20 at 19 UTC
Wind 10 kt from the Southwest
Visibility 10 km or more
Scattered clouds at a height of 2000 ft
Temporary
from 20 at 18 UTC to 20 at 19 UTC
Wind 15 kt from the West/Southwest with gusts up to 25 kt
Broken clouds at a height of 1400 ft

TAF: EGTC 201834Z 2018/2019 23010KT 9999 SCT020 TEMPO 2018/2019 24015G25KT BKN014

Weather observations and forecasts of more than 4000 airports (METAR and TAF reports).

The available stations are represented by yellow and red dots on the map.

Hover mouse over dot to see the name of the station.

Then click to see weather observations and forecasts.

To change the map : click on the green buttons with a black cross to zoom in, on the green button with a dash to zoom out, or on the green arrows for adjacent maps.


METAR-TAF: